San Juan, PR

11:37 PM AST on August 03, 2015 (GMT -0400)
Condado, Calle Earle, At The Ocean | | Change Station
CLOSE
Current Station
Personal Weather Station
Location: San Juan, SAN JUAN
Elevation: 10 ft
Nearby Weather Stations

Elev 10 ft 18.46 °N, 66.07 °W | Updated 8 seconds ago

Scattered Clouds
Scattered Clouds
82.3 °F
Feels Like 90 °F
N
1.0
Wind Variable Wind from WSW
Gusts 5.0 mph

Today
High -- | Low -- °F
--% Chance of Precip.
Yesterday
High -- | Low -- °F
Precip. -- in
6:02 AM 6:58 PM
Waning Gibbous, 81% visible
Pressure 30.07 in
Visibility 10.0 miles
Clouds Few 1800 ft
Scattered Clouds 2600 ft
Scattered Clouds 4600 ft
Heat Index 90 °F
Dew Point 76 °F
Humidity 81%
Rainfall in
Snow Depth Not available.
UV 0 out of 12
Pollen Not available.
Air Quality Not available.
Flu Activity Not available.
METAR TJSJ 040256Z 10009KT 10SM FEW018 SCT026 SCT046 28/25 A3007 RMK AO2 SLP181 T02830250 51015

More Conditions Fewer Conditions

Pressure 30.07 in
Visibility 10.0 miles
Clouds Few 1800 ft
Scattered Clouds 2600 ft
Scattered Clouds 4600 ft
Heat Index 90 °F
Dew Point 76 °F
Humidity 81%
Rainfall in
Snow Depth Not available.
UV 0 out of 12
Pollen Not available.
Air Quality Not available.
Flu Activity Not available.
METAR TJSJ 040256Z 10009KT 10SM FEW018 SCT026 SCT046 28/25 A3007 RMK AO2 SLP181 T02830250 51015

More Conditions Fewer Conditions

10-Day Weather Forecast

×

Almanac

Astronomy

Aug. 03, 2015 Rise Set
Actual Time
Civil Twilight
Nautical Twilight
Astronomical Twilight
Moon
Length of Visible Light
Length of Day
Tomorrow will be .
, % of the Moon is Illuminated

Today's Extremes

State Highs State Lows

Community

WunderPhotos

Upload Photos

1,843,838 photos uploaded!

WunderBlogs® & News

Nearby

Air Quality

  Air Quality AQ Index Pollutant
Not available.

Snow Depth

Station Depth Elevation

Earthquake Activity

City Distance Mag. Time & Date
Minimum magnitude displayed is 2.5.

Coastal Water Temperatures

Place Temperature

Stations

Nearby Weather Stations

Station Location Temp. Windchill Dew Point Humidity Wind Precip. Elev Updated Type